sensor_id;sensor_type;location;lat;lon;timestamp;temperature;humidity
30893;DHT22;17595;50.884;4.346;2023-08-12T00:00:19;23.50;99.90
30893;DHT22;17595;50.884;4.346;2023-08-12T00:02:45;23.60;99.90
30893;DHT22;17595;50.884;4.346;2023-08-12T00:05:11;23.50;99.90
30893;DHT22;17595;50.884;4.346;2023-08-12T00:07:37;23.50;99.90
30893;DHT22;17595;50.884;4.346;2023-08-12T00:10:04;23.50;99.90
30893;DHT22;17595;50.884;4.346;2023-08-12T00:12:33;23.50;99.90
30893;DHT22;17595;50.884;4.346;2023-08-12T00:14:59;23.50;99.90
30893;DHT22;17595;50.884;4.346;2023-08-12T00:17:24;23.50;99.90
30893;DHT22;17595;50.884;4.346;2023-08-12T00:19:50;23.50;99.90
30893;DHT22;17595;50.884;4.346;2023-08-12T00:22:16;23.50;99.90
30893;DHT22;17595;50.884;4.346;2023-08-12T00:24:42;23.40;99.90
30893;DHT22;17595;50.884;4.346;2023-08-12T00:27:07;23.40;99.90
30893;DHT22;17595;50.884;4.346;2023-08-12T00:29:34;23.50;99.90
30893;DHT22;17595;50.884;4.346;2023-08-12T00:32:01;23.50;99.90
30893;DHT22;17595;50.884;4.346;2023-08-12T00:34:26;23.50;99.90
30893;DHT22;17595;50.884;4.346;2023-08-12T00:36:52;23.50;99.90
30893;DHT22;17595;50.884;4.346;2023-08-12T00:39:18;23.50;99.90
30893;DHT22;17595;50.884;4.346;2023-08-12T00:41:44;23.50;99.90
30893;DHT22;17595;50.884;4.346;2023-08-12T00:44:09;23.50;99.90
30893;DHT22;17595;50.884;4.346;2023-08-12T00:46:35;23.50;99.90
30893;DHT22;17595;50.884;4.346;2023-08-12T00:49:01;23.40;99.90
30893;DHT22;17595;50.884;4.346;2023-08-12T00:51:27;23.40;99.90
30893;DHT22;17595;50.884;4.346;2023-08-12T00:53:54;23.40;99.90
30893;DHT22;17595;50.884;4.346;2023-08-12T00:56:22;23.40;99.90
30893;DHT22;17595;50.884;4.346;2023-08-12T00:58:48;23.40;99.90
30893;DHT22;17595;50.884;4.346;2023-08-12T01:01:13;23.50;99.90
30893;DHT22;17595;50.884;4.346;2023-08-12T01:03:40;23.50;99.90
30893;DHT22;17595;50.884;4.346;2023-08-12T01:06:07;23.50;99.90
30893;DHT22;17595;50.884;4.346;2023-08-12T01:08:34;23.50;99.90
30893;DHT22;17595;50.884;4.346;2023-08-12T01:13:52;23.50;99.90
30893;DHT22;17595;50.884;4.346;2023-08-12T01:16:22;23.40;99.90
30893;DHT22;17595;50.884;4.346;2023-08-12T01:18:50;23.40;99.90
30893;DHT22;17595;50.884;4.346;2023-08-12T01:21:17;23.20;99.90
30893;DHT22;17595;50.884;4.346;2023-08-12T01:23:44;23.20;99.90
30893;DHT22;17595;50.884;4.346;2023-08-12T01:26:10;23.20;99.90
30893;DHT22;17595;50.884;4.346;2023-08-12T01:28:35;23.20;99.90
30893;DHT22;17595;50.884;4.346;2023-08-12T01:31:11;23.20;99.90
30893;DHT22;17595;50.884;4.346;2023-08-12T01:33:49;23.20;99.90
30893;DHT22;17595;50.884;4.346;2023-08-12T01:36:19;23.20;99.90
30893;DHT22;17595;50.884;4.346;2023-08-12T01:38:46;23.20;99.90
30893;DHT22;17595;50.884;4.346;2023-08-12T01:41:13;23.20;99.90
30893;DHT22;17595;50.884;4.346;2023-08-12T01:43:41;23.20;99.90
30893;DHT22;17595;50.884;4.346;2023-08-12T01:46:07;23.20;99.90
30893;DHT22;17595;50.884;4.346;2023-08-12T01:48:33;23.30;99.90
30893;DHT22;17595;50.884;4.346;2023-08-12T01:50:58;23.20;99.90
30893;DHT22;17595;50.884;4.346;2023-08-12T01:53:24;23.20;99.90
30893;DHT22;17595;50.884;4.346;2023-08-12T01:55:51;23.20;99.90
30893;DHT22;17595;50.884;4.346;2023-08-12T01:58:17;23.20;99.90
30893;DHT22;17595;50.884;4.346;2023-08-12T02:00:42;23.30;99.90
30893;DHT22;17595;50.884;4.346;2023-08-12T02:03:08;23.30;99.90
30893;DHT22;17595;50.884;4.346;2023-08-12T02:05:34;23.30;99.90
30893;DHT22;17595;50.884;4.346;2023-08-12T02:07:59;23.30;99.90
30893;DHT22;17595;50.884;4.346;2023-08-12T02:10:25;23.30;99.90
30893;DHT22;17595;50.884;4.346;2023-08-12T02:12:51;23.30;99.90
30893;DHT22;17595;50.884;4.346;2023-08-12T02:15:16;23.30;99.90
30893;DHT22;17595;50.884;4.346;2023-08-12T02:17:42;23.30;99.90
30893;DHT22;17595;50.884;4.346;2023-08-12T02:20:08;23.30;99.90
30893;DHT22;17595;50.884;4.346;2023-08-12T02:22:34;23.20;99.90
30893;DHT22;17595;50.884;4.346;2023-08-12T02:24:59;23.20;99.90
30893;DHT22;17595;50.884;4.346;2023-08-12T02:27:25;23.20;99.90
30893;DHT22;17595;50.884;4.346;2023-08-12T02:29:51;23.20;99.90
30893;DHT22;17595;50.884;4.346;2023-08-12T02:32:16;23.20;99.90
30893;DHT22;17595;50.884;4.346;2023-08-12T02:34:42;23.20;99.90
30893;DHT22;17595;50.884;4.346;2023-08-12T02:37:07;23.10;99.90
30893;DHT22;17595;50.884;4.346;2023-08-12T02:39:33;23.10;99.90
30893;DHT22;17595;50.884;4.346;2023-08-12T02:41:59;23.10;99.90
30893;DHT22;17595;50.884;4.346;2023-08-12T02:44:24;23.10;99.90
30893;DHT22;17595;50.884;4.346;2023-08-12T02:46:50;23.10;99.90
30893;DHT22;17595;50.884;4.346;2023-08-12T02:49:16;23.00;99.90
30893;DHT22;17595;50.884;4.346;2023-08-12T02:51:41;23.10;99.90
30893;DHT22;17595;50.884;4.346;2023-08-12T02:54:07;23.20;99.90
30893;DHT22;17595;50.884;4.346;2023-08-12T02:56:32;23.30;99.90
30893;DHT22;17595;50.884;4.346;2023-08-12T02:58:58;23.20;99.90
30893;DHT22;17595;50.884;4.346;2023-08-12T03:01:24;23.10;99.90
30893;DHT22;17595;50.884;4.346;2023-08-12T03:03:50;23.00;99.90
30893;DHT22;17595;50.884;4.346;2023-08-12T03:06:16;23.00;99.90
30893;DHT22;17595;50.884;4.346;2023-08-12T03:08:41;23.00;99.90
30893;DHT22;17595;50.884;4.346;2023-08-12T03:11:07;23.00;99.90
30893;DHT22;17595;50.884;4.346;2023-08-12T03:13:33;23.00;99.90
30893;DHT22;17595;50.884;4.346;2023-08-12T03:15:58;23.00;99.90
30893;DHT22;17595;50.884;4.346;2023-08-12T03:18:24;23.00;99.90
30893;DHT22;17595;50.884;4.346;2023-08-12T03:20:50;23.10;99.90
30893;DHT22;17595;50.884;4.346;2023-08-12T03:23:16;23.10;99.90
30893;DHT22;17595;50.884;4.346;2023-08-12T03:25:42;23.00;99.90
30893;DHT22;17595;50.884;4.346;2023-08-12T03:28:08;22.90;99.90
30893;DHT22;17595;50.884;4.346;2023-08-12T03:30:33;22.80;99.90
30893;DHT22;17595;50.884;4.346;2023-08-12T03:32:59;22.80;99.90
30893;DHT22;17595;50.884;4.346;2023-08-12T03:35:24;22.80;99.90
30893;DHT22;17595;50.884;4.346;2023-08-12T03:37:50;22.70;99.90
30893;DHT22;17595;50.884;4.346;2023-08-12T03:40:17;22.60;99.90
30893;DHT22;17595;50.884;4.346;2023-08-12T03:42:43;22.60;99.90
30893;DHT22;17595;50.884;4.346;2023-08-12T03:45:09;22.50;99.90
30893;DHT22;17595;50.884;4.346;2023-08-12T03:47:35;22.60;99.90
30893;DHT22;17595;50.884;4.346;2023-08-12T03:50:00;22.70;99.90
30893;DHT22;17595;50.884;4.346;2023-08-12T03:52:26;22.60;99.90
30893;DHT22;17595;50.884;4.346;2023-08-12T03:54:51;22.50;99.90
30893;DHT22;17595;50.884;4.346;2023-08-12T03:57:18;22.40;99.90
30893;DHT22;17595;50.884;4.346;2023-08-12T03:59:44;22.40;99.90
30893;DHT22;17595;50.884;4.346;2023-08-12T04:02:09;22.40;99.90
30893;DHT22;17595;50.884;4.346;2023-08-12T04:04:36;22.30;99.90
30893;DHT22;17595;50.884;4.346;2023-08-12T04:07:01;22.20;99.90
30893;DHT22;17595;50.884;4.346;2023-08-12T04:09:27;22.20;99.90
30893;DHT22;17595;50.884;4.346;2023-08-12T04:11:52;22.20;99.90
30893;DHT22;17595;50.884;4.346;2023-08-12T04:14:18;22.10;99.90
30893;DHT22;17595;50.884;4.346;2023-08-12T04:16:44;22.10;99.90
30893;DHT22;17595;50.884;4.346;2023-08-12T04:19:09;22.00;99.90
30893;DHT22;17595;50.884;4.346;2023-08-12T04:21:35;22.00;99.90
30893;DHT22;17595;50.884;4.346;2023-08-12T04:24:00;21.90;99.90
30893;DHT22;17595;50.884;4.346;2023-08-12T04:26:26;21.90;99.90
30893;DHT22;17595;50.884;4.346;2023-08-12T04:28:52;21.90;99.90
30893;DHT22;17595;50.884;4.346;2023-08-12T04:31:17;22.00;99.90
30893;DHT22;17595;50.884;4.346;2023-08-12T04:33:43;22.00;99.90
30893;DHT22;17595;50.884;4.346;2023-08-12T04:36:09;22.00;99.90
30893;DHT22;17595;50.884;4.346;2023-08-12T04:38:34;22.00;99.90
30893;DHT22;17595;50.884;4.346;2023-08-12T04:41:00;22.00;99.90
30893;DHT22;17595;50.884;4.346;2023-08-12T04:43:26;22.00;99.90
30893;DHT22;17595;50.884;4.346;2023-08-12T04:45:52;22.00;99.90
30893;DHT22;17595;50.884;4.346;2023-08-12T04:48:18;21.90;99.90
30893;DHT22;17595;50.884;4.346;2023-08-12T04:50:44;21.90;99.90
30893;DHT22;17595;50.884;4.346;2023-08-12T04:53:09;21.90;99.90
30893;DHT22;17595;50.884;4.346;2023-08-12T04:55:35;21.90;99.90
30893;DHT22;17595;50.884;4.346;2023-08-12T04:58:02;22.00;99.90
30893;DHT22;17595;50.884;4.346;2023-08-12T05:00:28;22.00;99.90
30893;DHT22;17595;50.884;4.346;2023-08-12T05:02:53;22.00;99.90
30893;DHT22;17595;50.884;4.346;2023-08-12T05:05:19;22.10;99.90
30893;DHT22;17595;50.884;4.346;2023-08-12T05:07:45;22.00;99.90
30893;DHT22;17595;50.884;4.346;2023-08-12T05:10:15;22.00;99.90
30893;DHT22;17595;50.884;4.346;2023-08-12T05:12:42;22.00;99.90
30893;DHT22;17595;50.884;4.346;2023-08-12T05:15:09;21.90;99.90
30893;DHT22;17595;50.884;4.346;2023-08-12T05:17:35;21.90;99.90
30893;DHT22;17595;50.884;4.346;2023-08-12T05:20:01;22.00;99.90
30893;DHT22;17595;50.884;4.346;2023-08-12T05:22:26;21.90;99.90
30893;DHT22;17595;50.884;4.346;2023-08-12T05:24:52;21.90;99.90
30893;DHT22;17595;50.884;4.346;2023-08-12T05:27:18;21.90;99.90
30893;DHT22;17595;50.884;4.346;2023-08-12T05:29:43;21.90;99.90
30893;DHT22;17595;50.884;4.346;2023-08-12T05:32:09;21.80;99.90
30893;DHT22;17595;50.884;4.346;2023-08-12T05:34:34;21.80;99.90
30893;DHT22;17595;50.884;4.346;2023-08-12T05:37:00;21.80;99.90
30893;DHT22;17595;50.884;4.346;2023-08-12T05:39:26;21.80;99.90
30893;DHT22;17595;50.884;4.346;2023-08-12T05:41:51;21.80;99.90
30893;DHT22;17595;50.884;4.346;2023-08-12T05:44:17;21.70;99.90
30893;DHT22;17595;50.884;4.346;2023-08-12T05:46:43;21.80;99.90
30893;DHT22;17595;50.884;4.346;2023-08-12T05:49:09;21.80;99.90
30893;DHT22;17595;50.884;4.346;2023-08-12T05:51:35;21.70;99.90
30893;DHT22;17595;50.884;4.346;2023-08-12T05:54:01;21.70;99.90
30893;DHT22;17595;50.884;4.346;2023-08-12T05:56:26;21.70;99.90
30893;DHT22;17595;50.884;4.346;2023-08-12T05:58:52;21.80;99.90
30893;DHT22;17595;50.884;4.346;2023-08-12T06:01:19;21.80;99.90
30893;DHT22;17595;50.884;4.346;2023-08-12T06:03:45;21.80;99.90
30893;DHT22;17595;50.884;4.346;2023-08-12T06:06:10;21.80;99.90
30893;DHT22;17595;50.884;4.346;2023-08-12T06:08:36;21.80;99.90
30893;DHT22;17595;50.884;4.346;2023-08-12T06:11:02;21.70;99.90
30893;DHT22;17595;50.884;4.346;2023-08-12T06:13:27;21.70;99.90
30893;DHT22;17595;50.884;4.346;2023-08-12T06:15:53;21.70;99.90
30893;DHT22;17595;50.884;4.346;2023-08-12T06:18:19;21.80;99.90
30893;DHT22;17595;50.884;4.346;2023-08-12T06:20:44;21.90;99.90
30893;DHT22;17595;50.884;4.346;2023-08-12T06:23:10;21.90;99.90
30893;DHT22;17595;50.884;4.346;2023-08-12T06:25:35;21.90;99.90
30893;DHT22;17595;50.884;4.346;2023-08-12T06:28:02;22.00;99.90
30893;DHT22;17595;50.884;4.346;2023-08-12T06:30:30;22.00;99.90
30893;DHT22;17595;50.884;4.346;2023-08-12T06:32:55;22.00;99.90
30893;DHT22;17595;50.884;4.346;2023-08-12T06:35:21;22.00;99.90
30893;DHT22;17595;50.884;4.346;2023-08-12T06:37:47;22.10;99.90
30893;DHT22;17595;50.884;4.346;2023-08-12T06:40:13;22.30;99.90
30893;DHT22;17595;50.884;4.346;2023-08-12T06:42:39;22.10;99.90
30893;DHT22;17595;50.884;4.346;2023-08-12T06:45:05;22.20;99.90
30893;DHT22;17595;50.884;4.346;2023-08-12T06:47:31;22.20;99.90
30893;DHT22;17595;50.884;4.346;2023-08-12T06:49:57;22.30;99.90
30893;DHT22;17595;50.884;4.346;2023-08-12T06:52:23;22.20;99.90
30893;DHT22;17595;50.884;4.346;2023-08-12T06:54:48;22.30;99.90
30893;DHT22;17595;50.884;4.346;2023-08-12T06:57:14;22.40;99.90
30893;DHT22;17595;50.884;4.346;2023-08-12T06:59:40;22.30;99.90
30893;DHT22;17595;50.884;4.346;2023-08-12T07:02:06;22.20;99.90
30893;DHT22;17595;50.884;4.346;2023-08-12T07:04:32;21.90;99.90
30893;DHT22;17595;50.884;4.346;2023-08-12T07:06:59;21.80;99.90
30893;DHT22;17595;50.884;4.346;2023-08-12T07:09:25;21.20;99.90
30893;DHT22;17595;50.884;4.346;2023-08-12T07:11:50;20.90;99.90
30893;DHT22;17595;50.884;4.346;2023-08-12T07:14:16;20.70;99.90
30893;DHT22;17595;50.884;4.346;2023-08-12T07:16:42;20.40;99.90
30893;DHT22;17595;50.884;4.346;2023-08-12T07:19:07;20.30;99.90
30893;DHT22;17595;50.884;4.346;2023-08-12T07:21:33;20.10;99.90
30893;DHT22;17595;50.884;4.346;2023-08-12T07:23:59;19.90;99.90
30893;DHT22;17595;50.884;4.346;2023-08-12T07:26:24;19.80;99.90
30893;DHT22;17595;50.884;4.346;2023-08-12T07:28:50;19.80;99.90
30893;DHT22;17595;50.884;4.346;2023-08-12T07:31:16;19.60;99.90
30893;DHT22;17595;50.884;4.346;2023-08-12T07:33:42;19.70;99.90
30893;DHT22;17595;50.884;4.346;2023-08-12T07:36:08;19.70;99.90
30893;DHT22;17595;50.884;4.346;2023-08-12T07:38:34;19.70;99.90
30893;DHT22;17595;50.884;4.346;2023-08-12T07:41:00;19.80;99.90
30893;DHT22;17595;50.884;4.346;2023-08-12T07:43:26;20.00;99.90
30893;DHT22;17595;50.884;4.346;2023-08-12T07:45:53;20.10;99.90
30893;DHT22;17595;50.884;4.346;2023-08-12T07:48:19;20.10;99.90
30893;DHT22;17595;50.884;4.346;2023-08-12T07:50:45;20.10;99.90
30893;DHT22;17595;50.884;4.346;2023-08-12T07:53:14;20.20;99.90
30893;DHT22;17595;50.884;4.346;2023-08-12T07:55:41;20.50;99.90
30893;DHT22;17595;50.884;4.346;2023-08-12T07:58:07;20.80;99.90
30893;DHT22;17595;50.884;4.346;2023-08-12T08:00:33;21.00;99.90
30893;DHT22;17595;50.884;4.346;2023-08-12T08:02:59;21.20;99.90
30893;DHT22;17595;50.884;4.346;2023-08-12T08:05:24;21.20;99.90
30893;DHT22;17595;50.884;4.346;2023-08-12T08:07:50;21.20;99.90
30893;DHT22;17595;50.884;4.346;2023-08-12T08:10:16;21.20;99.90
30893;DHT22;17595;50.884;4.346;2023-08-12T08:12:42;21.20;99.90
30893;DHT22;17595;50.884;4.346;2023-08-12T08:15:07;21.30;99.90
30893;DHT22;17595;50.884;4.346;2023-08-12T08:17:33;21.50;99.90
30893;DHT22;17595;50.884;4.346;2023-08-12T08:19:59;21.60;99.90
30893;DHT22;17595;50.884;4.346;2023-08-12T08:22:25;21.60;99.90
30893;DHT22;17595;50.884;4.346;2023-08-12T08:24:50;21.70;99.90
30893;DHT22;17595;50.884;4.346;2023-08-12T08:27:16;21.80;99.90
30893;DHT22;17595;50.884;4.346;2023-08-12T08:29:42;21.40;99.90
30893;DHT22;17595;50.884;4.346;2023-08-12T08:32:08;21.10;99.90
30893;DHT22;17595;50.884;4.346;2023-08-12T08:34:34;21.00;99.90
30893;DHT22;17595;50.884;4.346;2023-08-12T08:36:59;21.00;99.90
30893;DHT22;17595;50.884;4.346;2023-08-12T08:39:25;21.10;99.90
30893;DHT22;17595;50.884;4.346;2023-08-12T08:41:51;21.00;99.90
30893;DHT22;17595;50.884;4.346;2023-08-12T08:44:21;21.20;99.90
30893;DHT22;17595;50.884;4.346;2023-08-12T08:46:49;21.20;99.90
30893;DHT22;17595;50.884;4.346;2023-08-12T08:49:17;21.20;99.90
30893;DHT22;17595;50.884;4.346;2023-08-12T08:51:43;21.20;99.90
30893;DHT22;17595;50.884;4.346;2023-08-12T08:54:12;21.30;99.90
30893;DHT22;17595;50.884;4.346;2023-08-12T08:56:38;21.20;99.90
30893;DHT22;17595;50.884;4.346;2023-08-12T08:59:04;21.10;99.90
30893;DHT22;17595;50.884;4.346;2023-08-12T09:01:30;21.40;99.90
30893;DHT22;17595;50.884;4.346;2023-08-12T09:03:57;21.50;99.90
30893;DHT22;17595;50.884;4.346;2023-08-12T09:06:25;21.50;99.90
30893;DHT22;17595;50.884;4.346;2023-08-12T09:08:54;21.50;99.90
30893;DHT22;17595;50.884;4.346;2023-08-12T09:11:20;21.30;99.90
30893;DHT22;17595;50.884;4.346;2023-08-12T09:13:47;21.60;99.90
30893;DHT22;17595;50.884;4.346;2023-08-12T09:16:14;21.40;99.90
30893;DHT22;17595;50.884;4.346;2023-08-12T09:18:42;21.00;99.90
30893;DHT22;17595;50.884;4.346;2023-08-12T09:21:09;20.90;99.90
30893;DHT22;17595;50.884;4.346;2023-08-12T09:23:39;20.90;99.90
30893;DHT22;17595;50.884;4.346;2023-08-12T09:26:18;21.10;99.90
30893;DHT22;17595;50.884;4.346;2023-08-12T09:28:45;21.60;99.90
30893;DHT22;17595;50.884;4.346;2023-08-12T09:31:25;21.90;99.90
30893;DHT22;17595;50.884;4.346;2023-08-12T09:33:52;21.80;99.90
30893;DHT22;17595;50.884;4.346;2023-08-12T09:36:17;21.90;99.90
30893;DHT22;17595;50.884;4.346;2023-08-12T09:38:44;21.90;99.90
30893;DHT22;17595;50.884;4.346;2023-08-12T09:41:10;22.00;99.90
30893;DHT22;17595;50.884;4.346;2023-08-12T09:43:44;22.10;99.90
30893;DHT22;17595;50.884;4.346;2023-08-12T09:46:12;22.40;99.90
30893;DHT22;17595;50.884;4.346;2023-08-12T09:48:41;22.30;99.90
30893;DHT22;17595;50.884;4.346;2023-08-12T09:51:07;22.20;99.90
30893;DHT22;17595;50.884;4.346;2023-08-12T09:53:34;22.10;99.90
30893;DHT22;17595;50.884;4.346;2023-08-12T09:56:07;22.20;99.90
30893;DHT22;17595;50.884;4.346;2023-08-12T09:58:34;22.30;99.90
30893;DHT22;17595;50.884;4.346;2023-08-12T10:01:03;22.20;99.90
30893;DHT22;17595;50.884;4.346;2023-08-12T10:03:30;22.50;99.90
30893;DHT22;17595;50.884;4.346;2023-08-12T10:05:57;22.60;99.90
30893;DHT22;17595;50.884;4.346;2023-08-12T10:08:23;22.60;99.90
30893;DHT22;17595;50.884;4.346;2023-08-12T10:10:49;22.40;99.90
30893;DHT22;17595;50.884;4.346;2023-08-12T10:13:15;22.20;99.90
30893;DHT22;17595;50.884;4.346;2023-08-12T10:15:41;22.30;99.90
30893;DHT22;17595;50.884;4.346;2023-08-12T10:18:07;22.50;99.90
30893;DHT22;17595;50.884;4.346;2023-08-12T10:20:35;22.60;99.90
30893;DHT22;17595;50.884;4.346;2023-08-12T10:23:02;23.10;99.90
30893;DHT22;17595;50.884;4.346;2023-08-12T10:25:32;23.40;99.90
30893;DHT22;17595;50.884;4.346;2023-08-12T10:28:00;23.10;99.90
30893;DHT22;17595;50.884;4.346;2023-08-12T10:30:28;22.60;99.90
30893;DHT22;17595;50.884;4.346;2023-08-12T10:32:54;22.50;99.90
30893;DHT22;17595;50.884;4.346;2023-08-12T10:35:20;21.90;99.90
30893;DHT22;17595;50.884;4.346;2023-08-12T10:37:50;21.60;99.90
30893;DHT22;17595;50.884;4.346;2023-08-12T10:40:21;21.80;99.90
30893;DHT22;17595;50.884;4.346;2023-08-12T10:42:48;21.80;99.90
30893;DHT22;17595;50.884;4.346;2023-08-12T10:45:16;21.70;99.90
30893;DHT22;17595;50.884;4.346;2023-08-12T10:47:53;21.90;99.90
30893;DHT22;17595;50.884;4.346;2023-08-12T10:50:34;22.10;99.90
30893;DHT22;17595;50.884;4.346;2023-08-12T10:53:29;22.00;99.90
30893;DHT22;17595;50.884;4.346;2023-08-12T10:56:11;22.10;99.90
30893;DHT22;17595;50.884;4.346;2023-08-12T10:58:47;22.10;99.90
30893;DHT22;17595;50.884;4.346;2023-08-12T11:01:19;21.80;99.90
30893;DHT22;17595;50.884;4.346;2023-08-12T11:03:45;21.70;99.90
30893;DHT22;17595;50.884;4.346;2023-08-12T11:06:12;21.70;99.90
30893;DHT22;17595;50.884;4.346;2023-08-12T11:08:49;21.90;99.90
30893;DHT22;17595;50.884;4.346;2023-08-12T11:11:21;22.10;99.90
30893;DHT22;17595;50.884;4.346;2023-08-12T11:14:01;22.40;99.90
30893;DHT22;17595;50.884;4.346;2023-08-12T11:16:37;22.30;99.90
30893;DHT22;17595;50.884;4.346;2023-08-12T11:19:03;22.30;99.90
30893;DHT22;17595;50.884;4.346;2023-08-12T11:21:29;22.20;99.90
30893;DHT22;17595;50.884;4.346;2023-08-12T11:23:55;22.10;99.90
30893;DHT22;17595;50.884;4.346;2023-08-12T11:26:23;22.30;99.90
30893;DHT22;17595;50.884;4.346;2023-08-12T11:28:49;22.50;99.90
30893;DHT22;17595;50.884;4.346;2023-08-12T11:31:15;23.00;99.90
30893;DHT22;17595;50.884;4.346;2023-08-12T11:33:41;22.90;99.90
30893;DHT22;17595;50.884;4.346;2023-08-12T11:36:07;22.50;99.90
30893;DHT22;17595;50.884;4.346;2023-08-12T11:38:33;22.20;99.90
30893;DHT22;17595;50.884;4.346;2023-08-12T11:41:00;22.40;99.90
30893;DHT22;17595;50.884;4.346;2023-08-12T11:43:28;22.30;99.90
30893;DHT22;17595;50.884;4.346;2023-08-12T11:45:56;22.30;99.90
30893;DHT22;17595;50.884;4.346;2023-08-12T11:48:22;22.40;99.90
30893;DHT22;17595;50.884;4.346;2023-08-12T11:50:49;22.70;99.90
30893;DHT22;17595;50.884;4.346;2023-08-12T11:53:15;23.00;99.90
30893;DHT22;17595;50.884;4.346;2023-08-12T11:55:41;23.30;99.90
30893;DHT22;17595;50.884;4.346;2023-08-12T11:58:07;23.60;99.90
30893;DHT22;17595;50.884;4.346;2023-08-12T12:00:33;23.50;99.90
30893;DHT22;17595;50.884;4.346;2023-08-12T12:02:58;23.20;99.90
30893;DHT22;17595;50.884;4.346;2023-08-12T12:05:28;23.30;99.90
30893;DHT22;17595;50.884;4.346;2023-08-12T12:07:55;23.60;99.90
30893;DHT22;17595;50.884;4.346;2023-08-12T12:10:30;23.40;99.90
30893;DHT22;17595;50.884;4.346;2023-08-12T12:12:56;23.10;99.90
30893;DHT22;17595;50.884;4.346;2023-08-12T12:15:23;23.20;99.90
30893;DHT22;17595;50.884;4.346;2023-08-12T12:17:52;23.50;99.90
30893;DHT22;17595;50.884;4.346;2023-08-12T12:20:17;23.50;99.90
30893;DHT22;17595;50.884;4.346;2023-08-12T12:22:44;23.50;99.90
30893;DHT22;17595;50.884;4.346;2023-08-12T12:25:12;23.40;99.90
30893;DHT22;17595;50.884;4.346;2023-08-12T12:27:39;23.30;99.90
30893;DHT22;17595;50.884;4.346;2023-08-12T12:30:09;23.20;99.90
30893;DHT22;17595;50.884;4.346;2023-08-12T12:32:35;23.50;99.90
30893;DHT22;17595;50.884;4.346;2023-08-12T12:35:01;23.50;99.90
30893;DHT22;17595;50.884;4.346;2023-08-12T12:37:29;23.30;99.90
30893;DHT22;17595;50.884;4.346;2023-08-12T12:39:54;23.20;99.90
30893;DHT22;17595;50.884;4.346;2023-08-12T12:42:20;23.10;99.90
30893;DHT22;17595;50.884;4.346;2023-08-12T12:44:46;23.20;99.90
30893;DHT22;17595;50.884;4.346;2023-08-12T12:47:11;23.40;99.90
30893;DHT22;17595;50.884;4.346;2023-08-12T12:49:38;23.60;99.90
30893;DHT22;17595;50.884;4.346;2023-08-12T12:52:04;23.80;99.90
30893;DHT22;17595;50.884;4.346;2023-08-12T12:54:30;24.10;99.90
30893;DHT22;17595;50.884;4.346;2023-08-12T12:56:56;23.90;99.90
30893;DHT22;17595;50.884;4.346;2023-08-12T12:59:22;23.50;99.90
30893;DHT22;17595;50.884;4.346;2023-08-12T13:01:48;23.70;99.90
30893;DHT22;17595;50.884;4.346;2023-08-12T13:04:14;23.70;99.90
30893;DHT22;17595;50.884;4.346;2023-08-12T13:06:40;23.80;99.90
30893;DHT22;17595;50.884;4.346;2023-08-12T13:09:05;23.90;99.90
30893;DHT22;17595;50.884;4.346;2023-08-12T13:11:32;23.80;99.90
30893;DHT22;17595;50.884;4.346;2023-08-12T13:13:59;23.50;99.90
30893;DHT22;17595;50.884;4.346;2023-08-12T13:16:24;23.50;99.90
30893;DHT22;17595;50.884;4.346;2023-08-12T13:18:50;23.70;99.90
30893;DHT22;17595;50.884;4.346;2023-08-12T13:21:15;23.80;99.90
30893;DHT22;17595;50.884;4.346;2023-08-12T13:23:41;23.80;99.90
30893;DHT22;17595;50.884;4.346;2023-08-12T13:26:07;24.00;99.90
30893;DHT22;17595;50.884;4.346;2023-08-12T13:28:32;24.10;99.90
30893;DHT22;17595;50.884;4.346;2023-08-12T13:30:58;24.20;99.90
30893;DHT22;17595;50.884;4.346;2023-08-12T13:33:23;24.30;99.90
30893;DHT22;17595;50.884;4.346;2023-08-12T13:35:49;24.30;99.90
30893;DHT22;17595;50.884;4.346;2023-08-12T13:38:15;24.30;99.90
30893;DHT22;17595;50.884;4.346;2023-08-12T13:40:40;24.10;99.90
30893;DHT22;17595;50.884;4.346;2023-08-12T13:43:06;24.20;99.90
30893;DHT22;17595;50.884;4.346;2023-08-12T13:45:31;24.30;99.90
30893;DHT22;17595;50.884;4.346;2023-08-12T13:47:57;24.30;99.90
30893;DHT22;17595;50.884;4.346;2023-08-12T13:50:23;24.40;99.90
30893;DHT22;17595;50.884;4.346;2023-08-12T13:52:48;24.20;99.90
30893;DHT22;17595;50.884;4.346;2023-08-12T13:55:15;24.10;99.90
30893;DHT22;17595;50.884;4.346;2023-08-12T13:57:41;24.20;99.90
30893;DHT22;17595;50.884;4.346;2023-08-12T14:00:07;24.30;99.90
30893;DHT22;17595;50.884;4.346;2023-08-12T14:02:36;24.30;99.90
30893;DHT22;17595;50.884;4.346;2023-08-12T14:05:02;24.50;99.90
30893;DHT22;17595;50.884;4.346;2023-08-12T14:07:28;24.30;99.90
30893;DHT22;17595;50.884;4.346;2023-08-12T14:09:54;24.60;99.90
30893;DHT22;17595;50.884;4.346;2023-08-12T14:12:20;25.00;99.90
30893;DHT22;17595;50.884;4.346;2023-08-12T14:14:45;25.10;99.90
30893;DHT22;17595;50.884;4.346;2023-08-12T14:17:11;25.10;99.90
30893;DHT22;17595;50.884;4.346;2023-08-12T14:19:40;25.00;99.90
30893;DHT22;17595;50.884;4.346;2023-08-12T14:22:07;24.80;99.90
30893;DHT22;17595;50.884;4.346;2023-08-12T14:24:32;24.80;99.90
30893;DHT22;17595;50.884;4.346;2023-08-12T14:26:58;25.00;99.90
30893;DHT22;17595;50.884;4.346;2023-08-12T14:29:24;25.10;99.90
30893;DHT22;17595;50.884;4.346;2023-08-12T14:31:50;24.50;99.90
30893;DHT22;17595;50.884;4.346;2023-08-12T14:34:16;24.50;99.90
30893;DHT22;17595;50.884;4.346;2023-08-12T14:36:41;24.50;99.90
30893;DHT22;17595;50.884;4.346;2023-08-12T14:39:07;24.40;99.90
30893;DHT22;17595;50.884;4.346;2023-08-12T14:41:33;24.60;99.90
30893;DHT22;17595;50.884;4.346;2023-08-12T14:43:58;24.70;99.90
30893;DHT22;17595;50.884;4.346;2023-08-12T14:46:24;24.70;99.90
30893;DHT22;17595;50.884;4.346;2023-08-12T14:48:49;24.90;99.90
30893;DHT22;17595;50.884;4.346;2023-08-12T14:51:16;24.90;99.90
30893;DHT22;17595;50.884;4.346;2023-08-12T14:53:41;24.60;99.90
30893;DHT22;17595;50.884;4.346;2023-08-12T14:56:07;24.80;99.90
30893;DHT22;17595;50.884;4.346;2023-08-12T14:58:33;25.10;99.90
30893;DHT22;17595;50.884;4.346;2023-08-12T15:01:00;24.90;99.90
30893;DHT22;17595;50.884;4.346;2023-08-12T15:03:26;24.50;99.90
30893;DHT22;17595;50.884;4.346;2023-08-12T15:06:02;24.80;99.90
30893;DHT22;17595;50.884;4.346;2023-08-12T15:08:29;25.30;99.90
30893;DHT22;17595;50.884;4.346;2023-08-12T15:10:55;25.30;99.90
30893;DHT22;17595;50.884;4.346;2023-08-12T15:13:21;24.70;99.90
30893;DHT22;17595;50.884;4.346;2023-08-12T15:15:48;24.50;99.90
30893;DHT22;17595;50.884;4.346;2023-08-12T15:18:14;24.30;99.90
30893;DHT22;17595;50.884;4.346;2023-08-12T15:20:40;24.10;99.90
30893;DHT22;17595;50.884;4.346;2023-08-12T15:23:05;24.00;99.90
30893;DHT22;17595;50.884;4.346;2023-08-12T15:25:31;23.80;99.90
30893;DHT22;17595;50.884;4.346;2023-08-12T15:27:57;23.90;99.90